sensor_id;sensor_type;location;lat;lon;timestamp;P1;durP1;ratioP1;P2;durP2;ratioP2
15202;SDS011;7702;51.046;5.184;2022-09-06T00:01:26;5.67;;;3.90;;
15202;SDS011;7702;51.046;5.184;2022-09-06T00:03:52;4.27;;;3.87;;
15202;SDS011;7702;51.046;5.184;2022-09-06T00:06:18;4.03;;;3.67;;
15202;SDS011;7702;51.046;5.184;2022-09-06T00:08:45;4.80;;;4.10;;
15202;SDS011;7702;51.046;5.184;2022-09-06T00:11:12;5.40;;;4.90;;
15202;SDS011;7702;51.046;5.184;2022-09-06T00:13:38;5.33;;;4.67;;
15202;SDS011;7702;51.046;5.184;2022-09-06T00:16:05;4.87;;;4.37;;
15202;SDS011;7702;51.046;5.184;2022-09-06T00:18:36;5.23;;;4.53;;
15202;SDS011;7702;51.046;5.184;2022-09-06T00:21:03;4.73;;;4.33;;
15202;SDS011;7702;51.046;5.184;2022-09-06T00:23:36;6.60;;;4.87;;
15202;SDS011;7702;51.046;5.184;2022-09-06T00:26:03;5.37;;;4.87;;
15202;SDS011;7702;51.046;5.184;2022-09-06T00:28:29;6.60;;;5.73;;
15202;SDS011;7702;51.046;5.184;2022-09-06T00:30:54;5.87;;;5.37;;
15202;SDS011;7702;51.046;5.184;2022-09-06T00:33:21;6.13;;;5.53;;
15202;SDS011;7702;51.046;5.184;2022-09-06T00:35:47;6.47;;;5.73;;
15202;SDS011;7702;51.046;5.184;2022-09-06T00:38:13;5.70;;;5.30;;
15202;SDS011;7702;51.046;5.184;2022-09-06T00:40:39;6.67;;;5.93;;
15202;SDS011;7702;51.046;5.184;2022-09-06T00:43:05;6.40;;;5.77;;
15202;SDS011;7702;51.046;5.184;2022-09-06T00:45:31;5.70;;;5.30;;
15202;SDS011;7702;51.046;5.184;2022-09-06T00:47:58;6.80;;;6.10;;
15202;SDS011;7702;51.046;5.184;2022-09-06T00:50:26;5.73;;;5.20;;
15202;SDS011;7702;51.046;5.184;2022-09-06T00:52:53;5.77;;;5.27;;
15202;SDS011;7702;51.046;5.184;2022-09-06T00:55:19;5.67;;;5.27;;
15202;SDS011;7702;51.046;5.184;2022-09-06T00:57:45;6.07;;;5.47;;
15202;SDS011;7702;51.046;5.184;2022-09-06T01:00:15;7.10;;;5.37;;
15202;SDS011;7702;51.046;5.184;2022-09-06T01:02:41;5.70;;;5.13;;
15202;SDS011;7702;51.046;5.184;2022-09-06T01:05:07;5.70;;;5.20;;
15202;SDS011;7702;51.046;5.184;2022-09-06T01:07:44;5.83;;;5.33;;
15202;SDS011;7702;51.046;5.184;2022-09-06T01:21:08;7.57;;;6.23;;
15202;SDS011;7702;51.046;5.184;2022-09-06T01:26:43;7.20;;;5.60;;
15202;SDS011;7702;51.046;5.184;2022-09-06T01:31:59;5.90;;;5.40;;
15202;SDS011;7702;51.046;5.184;2022-09-06T01:34:36;6.77;;;6.27;;
15202;SDS011;7702;51.046;5.184;2022-09-06T01:37:09;5.80;;;5.10;;
15202;SDS011;7702;51.046;5.184;2022-09-06T01:39:39;6.13;;;5.53;;
15202;SDS011;7702;51.046;5.184;2022-09-06T01:44:38;6.23;;;5.73;;
15202;SDS011;7702;51.046;5.184;2022-09-06T01:47:19;6.27;;;5.77;;
15202;SDS011;7702;51.046;5.184;2022-09-06T01:55:23;7.97;;;5.70;;
15202;SDS011;7702;51.046;5.184;2022-09-06T01:57:54;7.07;;;6.40;;
15202;SDS011;7702;51.046;5.184;2022-09-06T02:00:53;6.77;;;5.80;;
15202;SDS011;7702;51.046;5.184;2022-09-06T02:05:48;6.47;;;5.93;;
15202;SDS011;7702;51.046;5.184;2022-09-06T02:08:21;7.03;;;6.30;;
15202;SDS011;7702;51.046;5.184;2022-09-06T02:10:59;6.87;;;6.10;;
15202;SDS011;7702;51.046;5.184;2022-09-06T02:13:29;6.57;;;6.07;;
15202;SDS011;7702;51.046;5.184;2022-09-06T02:16:00;7.57;;;6.83;;
15202;SDS011;7702;51.046;5.184;2022-09-06T02:18:37;7.10;;;6.40;;
15202;SDS011;7702;51.046;5.184;2022-09-06T02:21:07;7.17;;;6.43;;
15202;SDS011;7702;51.046;5.184;2022-09-06T02:23:37;7.17;;;6.67;;
15202;SDS011;7702;51.046;5.184;2022-09-06T02:26:06;6.83;;;5.33;;
15202;SDS011;7702;51.046;5.184;2022-09-06T02:28:36;6.80;;;6.30;;
15202;SDS011;7702;51.046;5.184;2022-09-06T02:31:03;6.60;;;5.83;;
15202;SDS011;7702;51.046;5.184;2022-09-06T02:33:34;6.17;;;5.67;;
15202;SDS011;7702;51.046;5.184;2022-09-06T02:36:02;6.40;;;5.87;;
15202;SDS011;7702;51.046;5.184;2022-09-06T02:38:30;6.70;;;6.10;;
15202;SDS011;7702;51.046;5.184;2022-09-06T02:40:58;6.83;;;6.20;;
15202;SDS011;7702;51.046;5.184;2022-09-06T02:43:24;7.83;;;7.00;;
15202;SDS011;7702;51.046;5.184;2022-09-06T02:45:51;7.40;;;6.73;;
15202;SDS011;7702;51.046;5.184;2022-09-06T02:48:17;7.60;;;6.87;;
15202;SDS011;7702;51.046;5.184;2022-09-06T02:50:42;7.10;;;6.50;;
15202;SDS011;7702;51.046;5.184;2022-09-06T02:53:09;8.83;;;7.57;;
15202;SDS011;7702;51.046;5.184;2022-09-06T02:55:37;7.63;;;6.90;;
15202;SDS011;7702;51.046;5.184;2022-09-06T02:58:04;7.80;;;7.00;;
15202;SDS011;7702;51.046;5.184;2022-09-06T03:00:31;8.00;;;7.23;;
15202;SDS011;7702;51.046;5.184;2022-09-06T03:02:57;8.30;;;7.50;;
15202;SDS011;7702;51.046;5.184;2022-09-06T03:05:24;8.70;;;7.80;;
15202;SDS011;7702;51.046;5.184;2022-09-06T03:07:50;8.10;;;7.33;;
15202;SDS011;7702;51.046;5.184;2022-09-06T03:10:17;9.67;;;7.63;;
15202;SDS011;7702;51.046;5.184;2022-09-06T03:12:43;9.07;;;8.27;;
15202;SDS011;7702;51.046;5.184;2022-09-06T03:15:10;8.63;;;7.83;;
15202;SDS011;7702;51.046;5.184;2022-09-06T03:17:36;8.83;;;8.03;;
15202;SDS011;7702;51.046;5.184;2022-09-06T03:20:02;8.53;;;7.73;;
15202;SDS011;7702;51.046;5.184;2022-09-06T03:22:29;9.17;;;8.37;;
15202;SDS011;7702;51.046;5.184;2022-09-06T03:24:55;8.33;;;7.53;;
15202;SDS011;7702;51.046;5.184;2022-09-06T03:27:21;10.17;;;9.13;;
15202;SDS011;7702;51.046;5.184;2022-09-06T03:29:47;10.17;;;9.27;;
15202;SDS011;7702;51.046;5.184;2022-09-06T03:32:13;9.97;;;8.97;;
15202;SDS011;7702;51.046;5.184;2022-09-06T03:34:39;11.13;;;9.17;;
15202;SDS011;7702;51.046;5.184;2022-09-06T03:37:04;9.37;;;8.57;;
15202;SDS011;7702;51.046;5.184;2022-09-06T03:39:30;10.63;;;9.70;;
15202;SDS011;7702;51.046;5.184;2022-09-06T03:41:56;10.50;;;9.47;;
15202;SDS011;7702;51.046;5.184;2022-09-06T03:44:21;10.97;;;9.87;;
15202;SDS011;7702;51.046;5.184;2022-09-06T03:46:47;11.33;;;10.17;;
15202;SDS011;7702;51.046;5.184;2022-09-06T03:49:13;10.80;;;9.73;;
15202;SDS011;7702;51.046;5.184;2022-09-06T03:51:38;11.47;;;9.50;;
15202;SDS011;7702;51.046;5.184;2022-09-06T03:54:04;9.50;;;8.53;;
15202;SDS011;7702;51.046;5.184;2022-09-06T03:56:30;11.10;;;10.00;;
15202;SDS011;7702;51.046;5.184;2022-09-06T03:58:56;11.53;;;10.27;;
15202;SDS011;7702;51.046;5.184;2022-09-06T04:01:22;12.10;;;9.40;;
15202;SDS011;7702;51.046;5.184;2022-09-06T04:03:47;12.00;;;10.40;;
15202;SDS011;7702;51.046;5.184;2022-09-06T04:06:13;10.57;;;9.53;;
15202;SDS011;7702;51.046;5.184;2022-09-06T04:08:39;11.60;;;10.50;;
15202;SDS011;7702;51.046;5.184;2022-09-06T04:11:05;10.40;;;9.20;;
15202;SDS011;7702;51.046;5.184;2022-09-06T04:13:31;10.47;;;9.47;;
15202;SDS011;7702;51.046;5.184;2022-09-06T04:15:58;12.37;;;9.57;;
15202;SDS011;7702;51.046;5.184;2022-09-06T04:18:24;10.40;;;9.30;;
15202;SDS011;7702;51.046;5.184;2022-09-06T04:20:51;9.90;;;8.70;;
15202;SDS011;7702;51.046;5.184;2022-09-06T04:23:18;9.93;;;9.07;;
15202;SDS011;7702;51.046;5.184;2022-09-06T04:25:47;11.17;;;10.07;;
15202;SDS011;7702;51.046;5.184;2022-09-06T04:28:14;11.23;;;10.30;;
15202;SDS011;7702;51.046;5.184;2022-09-06T04:30:42;11.73;;;10.33;;
15202;SDS011;7702;51.046;5.184;2022-09-06T04:33:24;12.10;;;10.90;;
15202;SDS011;7702;51.046;5.184;2022-09-06T04:35:51;11.77;;;10.70;;
15202;SDS011;7702;51.046;5.184;2022-09-06T04:38:18;12.03;;;10.90;;
15202;SDS011;7702;51.046;5.184;2022-09-06T04:40:44;11.77;;;10.40;;
15202;SDS011;7702;51.046;5.184;2022-09-06T04:43:09;11.53;;;10.13;;
15202;SDS011;7702;51.046;5.184;2022-09-06T04:45:35;13.83;;;11.30;;
15202;SDS011;7702;51.046;5.184;2022-09-06T04:48:01;12.83;;;11.53;;
15202;SDS011;7702;51.046;5.184;2022-09-06T04:50:27;13.43;;;11.23;;
15202;SDS011;7702;51.046;5.184;2022-09-06T04:52:53;13.10;;;11.73;;
15202;SDS011;7702;51.046;5.184;2022-09-06T04:55:18;12.10;;;10.83;;
15202;SDS011;7702;51.046;5.184;2022-09-06T04:57:44;14.10;;;12.60;;
15202;SDS011;7702;51.046;5.184;2022-09-06T05:00:10;12.00;;;10.90;;
15202;SDS011;7702;51.046;5.184;2022-09-06T05:02:36;12.43;;;11.23;;
15202;SDS011;7702;51.046;5.184;2022-09-06T05:05:01;11.83;;;10.57;;
15202;SDS011;7702;51.046;5.184;2022-09-06T05:07:29;11.37;;;10.37;;
15202;SDS011;7702;51.046;5.184;2022-09-06T05:09:54;12.10;;;10.90;;
15202;SDS011;7702;51.046;5.184;2022-09-06T05:12:20;11.63;;;10.50;;
15202;SDS011;7702;51.046;5.184;2022-09-06T05:14:47;11.30;;;10.30;;
15202;SDS011;7702;51.046;5.184;2022-09-06T05:17:12;14.40;;;10.90;;
15202;SDS011;7702;51.046;5.184;2022-09-06T05:19:39;12.30;;;11.10;;
15202;SDS011;7702;51.046;5.184;2022-09-06T05:22:05;12.53;;;11.30;;
15202;SDS011;7702;51.046;5.184;2022-09-06T05:24:31;15.13;;;11.83;;
15202;SDS011;7702;51.046;5.184;2022-09-06T05:26:57;12.80;;;10.77;;
15202;SDS011;7702;51.046;5.184;2022-09-06T05:29:27;11.27;;;10.20;;
15202;SDS011;7702;51.046;5.184;2022-09-06T05:31:53;12.37;;;11.07;;
15202;SDS011;7702;51.046;5.184;2022-09-06T05:34:19;11.50;;;10.37;;
15202;SDS011;7702;51.046;5.184;2022-09-06T05:36:44;11.90;;;10.70;;
15202;SDS011;7702;51.046;5.184;2022-09-06T05:39:10;12.20;;;11.00;;
15202;SDS011;7702;51.046;5.184;2022-09-06T05:41:36;13.83;;;11.83;;
15202;SDS011;7702;51.046;5.184;2022-09-06T05:44:01;13.23;;;10.83;;
15202;SDS011;7702;51.046;5.184;2022-09-06T05:46:27;12.03;;;10.90;;
15202;SDS011;7702;51.046;5.184;2022-09-06T05:48:57;12.67;;;11.03;;
15202;SDS011;7702;51.046;5.184;2022-09-06T05:51:31;11.50;;;10.30;;
15202;SDS011;7702;51.046;5.184;2022-09-06T05:53:57;11.37;;;10.17;;
15202;SDS011;7702;51.046;5.184;2022-09-06T05:56:24;14.37;;;11.07;;
15202;SDS011;7702;51.046;5.184;2022-09-06T05:58:49;13.47;;;10.73;;
15202;SDS011;7702;51.046;5.184;2022-09-06T06:01:16;13.40;;;10.83;;
15202;SDS011;7702;51.046;5.184;2022-09-06T06:04:00;11.30;;;10.20;;
15202;SDS011;7702;51.046;5.184;2022-09-06T06:06:28;12.20;;;10.87;;
15202;SDS011;7702;51.046;5.184;2022-09-06T06:08:56;11.80;;;9.67;;
15202;SDS011;7702;51.046;5.184;2022-09-06T06:11:22;11.63;;;10.47;;
15202;SDS011;7702;51.046;5.184;2022-09-06T06:13:50;13.10;;;9.80;;
15202;SDS011;7702;51.046;5.184;2022-09-06T06:16:16;11.60;;;9.33;;
15202;SDS011;7702;51.046;5.184;2022-09-06T06:18:44;10.73;;;9.67;;
15202;SDS011;7702;51.046;5.184;2022-09-06T06:21:15;10.13;;;9.13;;
15202;SDS011;7702;51.046;5.184;2022-09-06T06:23:43;9.97;;;8.97;;
15202;SDS011;7702;51.046;5.184;2022-09-06T06:26:10;9.47;;;8.57;;
15202;SDS011;7702;51.046;5.184;2022-09-06T06:28:37;9.50;;;8.50;;
15202;SDS011;7702;51.046;5.184;2022-09-06T06:31:03;8.70;;;8.00;;
15202;SDS011;7702;51.046;5.184;2022-09-06T06:33:30;9.27;;;8.37;;
15202;SDS011;7702;51.046;5.184;2022-09-06T06:38:23;8.50;;;7.40;;
15202;SDS011;7702;51.046;5.184;2022-09-06T06:40:53;7.70;;;6.90;;
15202;SDS011;7702;51.046;5.184;2022-09-06T06:43:20;7.60;;;6.77;;
15202;SDS011;7702;51.046;5.184;2022-09-06T06:45:48;7.67;;;6.73;;
15202;SDS011;7702;51.046;5.184;2022-09-06T06:48:15;7.50;;;6.63;;
15202;SDS011;7702;51.046;5.184;2022-09-06T06:50:41;6.63;;;6.03;;
15202;SDS011;7702;51.046;5.184;2022-09-06T06:53:06;6.53;;;5.80;;
15202;SDS011;7702;51.046;5.184;2022-09-06T06:55:32;6.10;;;5.70;;
15202;SDS011;7702;51.046;5.184;2022-09-06T06:57:58;7.00;;;5.37;;
15202;SDS011;7702;51.046;5.184;2022-09-06T07:00:24;6.40;;;5.13;;
15202;SDS011;7702;51.046;5.184;2022-09-06T07:02:50;7.07;;;5.17;;
15202;SDS011;7702;51.046;5.184;2022-09-06T07:05:17;6.63;;;5.47;;
15202;SDS011;7702;51.046;5.184;2022-09-06T07:07:42;5.73;;;5.00;;
15202;SDS011;7702;51.046;5.184;2022-09-06T07:10:08;5.70;;;5.20;;
15202;SDS011;7702;51.046;5.184;2022-09-06T07:12:35;6.00;;;5.50;;
15202;SDS011;7702;51.046;5.184;2022-09-06T07:15:01;6.23;;;5.43;;
15202;SDS011;7702;51.046;5.184;2022-09-06T07:17:27;5.63;;;5.13;;
15202;SDS011;7702;51.046;5.184;2022-09-06T07:19:53;5.43;;;4.93;;
15202;SDS011;7702;51.046;5.184;2022-09-06T07:22:19;5.13;;;4.47;;
15202;SDS011;7702;51.046;5.184;2022-09-06T07:24:44;6.63;;;4.27;;
15202;SDS011;7702;51.046;5.184;2022-09-06T07:27:11;5.77;;;4.30;;
15202;SDS011;7702;51.046;5.184;2022-09-06T07:29:36;4.37;;;3.93;;
15202;SDS011;7702;51.046;5.184;2022-09-06T07:32:02;6.93;;;4.57;;
15202;SDS011;7702;51.046;5.184;2022-09-06T07:34:28;4.40;;;3.80;;
15202;SDS011;7702;51.046;5.184;2022-09-06T07:36:54;4.20;;;3.70;;
15202;SDS011;7702;51.046;5.184;2022-09-06T07:39:20;7.83;;;4.20;;
15202;SDS011;7702;51.046;5.184;2022-09-06T07:41:46;4.77;;;3.63;;
15202;SDS011;7702;51.046;5.184;2022-09-06T07:44:12;4.43;;;3.27;;
15202;SDS011;7702;51.046;5.184;2022-09-06T07:46:37;6.23;;;3.30;;
15202;SDS011;7702;51.046;5.184;2022-09-06T07:49:04;5.20;;;3.50;;
15202;SDS011;7702;51.046;5.184;2022-09-06T07:51:30;3.90;;;3.40;;
15202;SDS011;7702;51.046;5.184;2022-09-06T07:53:56;4.00;;;3.47;;
15202;SDS011;7702;51.046;5.184;2022-09-06T07:56:22;2.90;;;2.70;;
15202;SDS011;7702;51.046;5.184;2022-09-06T07:58:49;3.87;;;3.07;;
15202;SDS011;7702;51.046;5.184;2022-09-06T08:01:30;4.23;;;3.40;;
15202;SDS011;7702;51.046;5.184;2022-09-06T08:04:00;5.10;;;3.87;;
15202;SDS011;7702;51.046;5.184;2022-09-06T08:06:27;3.60;;;3.03;;
15202;SDS011;7702;51.046;5.184;2022-09-06T08:08:55;3.17;;;2.90;;
15202;SDS011;7702;51.046;5.184;2022-09-06T08:11:22;3.30;;;2.90;;
15202;SDS011;7702;51.046;5.184;2022-09-06T08:13:50;3.10;;;2.77;;
15202;SDS011;7702;51.046;5.184;2022-09-06T08:16:19;2.70;;;2.50;;
15202;SDS011;7702;51.046;5.184;2022-09-06T08:18:49;3.17;;;2.87;;
15202;SDS011;7702;51.046;5.184;2022-09-06T08:21:15;2.30;;;2.10;;
15202;SDS011;7702;51.046;5.184;2022-09-06T08:23:45;2.83;;;2.63;;
15202;SDS011;7702;51.046;5.184;2022-09-06T08:26:12;4.30;;;2.33;;
15202;SDS011;7702;51.046;5.184;2022-09-06T08:28:39;3.33;;;2.80;;
15202;SDS011;7702;51.046;5.184;2022-09-06T08:31:05;2.60;;;2.40;;
15202;SDS011;7702;51.046;5.184;2022-09-06T08:33:38;3.17;;;2.87;;
15202;SDS011;7702;51.046;5.184;2022-09-06T08:36:06;4.17;;;2.80;;
15202;SDS011;7702;51.046;5.184;2022-09-06T08:38:33;4.23;;;2.63;;
15202;SDS011;7702;51.046;5.184;2022-09-06T08:43:54;3.30;;;2.50;;
15202;SDS011;7702;51.046;5.184;2022-09-06T08:46:26;2.67;;;2.17;;
15202;SDS011;7702;51.046;5.184;2022-09-06T08:49:02;2.90;;;2.13;;
15202;SDS011;7702;51.046;5.184;2022-09-06T08:57:00;3.13;;;2.00;;
15202;SDS011;7702;51.046;5.184;2022-09-06T08:59:33;2.77;;;2.20;;
15202;SDS011;7702;51.046;5.184;2022-09-06T09:04:28;2.40;;;1.70;;
15202;SDS011;7702;51.046;5.184;2022-09-06T09:06:59;2.07;;;1.97;;
15202;SDS011;7702;51.046;5.184;2022-09-06T09:09:46;6.17;;;2.30;;
15202;SDS011;7702;51.046;5.184;2022-09-06T09:12:14;2.17;;;1.90;;
15202;SDS011;7702;51.046;5.184;2022-09-06T09:14:42;5.03;;;2.47;;
15202;SDS011;7702;51.046;5.184;2022-09-06T09:17:16;3.00;;;2.13;;
15202;SDS011;7702;51.046;5.184;2022-09-06T09:19:46;2.17;;;2.00;;
15202;SDS011;7702;51.046;5.184;2022-09-06T09:22:16;2.27;;;2.10;;
15202;SDS011;7702;51.046;5.184;2022-09-06T09:24:43;2.60;;;2.10;;
15202;SDS011;7702;51.046;5.184;2022-09-06T09:27:11;2.40;;;2.20;;
15202;SDS011;7702;51.046;5.184;2022-09-06T09:30:00;4.93;;;3.13;;
15202;SDS011;7702;51.046;5.184;2022-09-06T09:35:16;3.00;;;2.33;;
15202;SDS011;7702;51.046;5.184;2022-09-06T09:37:59;1.90;;;1.80;;
15202;SDS011;7702;51.046;5.184;2022-09-06T09:40:33;4.17;;;2.17;;
15202;SDS011;7702;51.046;5.184;2022-09-06T09:43:15;2.50;;;2.30;;
15202;SDS011;7702;51.046;5.184;2022-09-06T09:45:43;3.43;;;2.43;;
15202;SDS011;7702;51.046;5.184;2022-09-06T09:48:16;3.47;;;2.30;;
15202;SDS011;7702;51.046;5.184;2022-09-06T09:50:48;2.53;;;2.33;;
15202;SDS011;7702;51.046;5.184;2022-09-06T09:53:16;3.27;;;2.20;;
15202;SDS011;7702;51.046;5.184;2022-09-06T09:55:45;2.27;;;2.17;;
15202;SDS011;7702;51.046;5.184;2022-09-06T09:58:23;4.63;;;2.70;;
15202;SDS011;7702;51.046;5.184;2022-09-06T10:01:07;3.97;;;2.20;;
15202;SDS011;7702;51.046;5.184;2022-09-06T10:03:36;4.10;;;2.57;;
15202;SDS011;7702;51.046;5.184;2022-09-06T10:06:02;2.50;;;2.30;;
15202;SDS011;7702;51.046;5.184;2022-09-06T10:08:30;3.63;;;2.50;;
15202;SDS011;7702;51.046;5.184;2022-09-06T10:10:57;4.13;;;2.27;;
15202;SDS011;7702;51.046;5.184;2022-09-06T10:13:27;3.40;;;2.10;;
15202;SDS011;7702;51.046;5.184;2022-09-06T10:15:54;3.33;;;1.97;;
15202;SDS011;7702;51.046;5.184;2022-09-06T10:18:29;2.43;;;2.30;;
15202;SDS011;7702;51.046;5.184;2022-09-06T10:20:58;3.27;;;2.53;;
15202;SDS011;7702;51.046;5.184;2022-09-06T10:23:32;4.47;;;2.50;;
15202;SDS011;7702;51.046;5.184;2022-09-06T10:32:00;3.30;;;2.33;;
15202;SDS011;7702;51.046;5.184;2022-09-06T10:39:47;3.13;;;1.67;;
15202;SDS011;7702;51.046;5.184;2022-09-06T10:47:57;5.47;;;2.10;;
15202;SDS011;7702;51.046;5.184;2022-09-06T10:53:31;3.13;;;2.20;;
15202;SDS011;7702;51.046;5.184;2022-09-06T10:56:05;3.43;;;1.80;;
15202;SDS011;7702;51.046;5.184;2022-09-06T11:01:52;2.03;;;1.87;;
15202;SDS011;7702;51.046;5.184;2022-09-06T11:04:41;3.77;;;2.23;;
15202;SDS011;7702;51.046;5.184;2022-09-06T11:07:19;3.60;;;1.97;;
15202;SDS011;7702;51.046;5.184;2022-09-06T11:10:05;3.43;;;2.30;;
15202;SDS011;7702;51.046;5.184;2022-09-06T11:16:02;2.60;;;1.93;;
15202;SDS011;7702;51.046;5.184;2022-09-06T11:18:51;2.67;;;1.80;;
15202;SDS011;7702;51.046;5.184;2022-09-06T11:24:12;3.07;;;1.87;;
15202;SDS011;7702;51.046;5.184;2022-09-06T11:29:23;3.13;;;1.90;;
15202;SDS011;7702;51.046;5.184;2022-09-06T11:31:55;2.50;;;1.90;;
15202;SDS011;7702;51.046;5.184;2022-09-06T11:34:34;2.57;;;2.07;;
15202;SDS011;7702;51.046;5.184;2022-09-06T11:37:02;4.97;;;2.20;;
15202;SDS011;7702;51.046;5.184;2022-09-06T11:39:34;2.47;;;2.17;;
15202;SDS011;7702;51.046;5.184;2022-09-06T11:42:06;2.97;;;2.23;;
15202;SDS011;7702;51.046;5.184;2022-09-06T11:55:50;3.57;;;2.27;;
15202;SDS011;7702;51.046;5.184;2022-09-06T12:00:41;4.33;;;2.70;;
15202;SDS011;7702;51.046;5.184;2022-09-06T12:03:09;3.97;;;2.40;;
15202;SDS011;7702;51.046;5.184;2022-09-06T12:08:49;3.43;;;2.10;;
15202;SDS011;7702;51.046;5.184;2022-09-06T12:13:58;2.27;;;2.17;;
15202;SDS011;7702;51.046;5.184;2022-09-06T12:25:05;3.37;;;2.60;;
15202;SDS011;7702;51.046;5.184;2022-09-06T12:27:50;2.27;;;2.03;;
15202;SDS011;7702;51.046;5.184;2022-09-06T12:30:38;2.27;;;2.00;;
15202;SDS011;7702;51.046;5.184;2022-09-06T12:33:16;2.33;;;2.10;;
15202;SDS011;7702;51.046;5.184;2022-09-06T12:36:10;4.43;;;2.30;;
15202;SDS011;7702;51.046;5.184;2022-09-06T12:41:24;3.30;;;2.70;;
15202;SDS011;7702;51.046;5.184;2022-09-06T12:43:51;2.30;;;2.10;;
15202;SDS011;7702;51.046;5.184;2022-09-06T12:46:19;2.63;;;2.07;;
15202;SDS011;7702;51.046;5.184;2022-09-06T12:48:58;3.20;;;2.27;;
15202;SDS011;7702;51.046;5.184;2022-09-06T12:51:37;2.63;;;2.33;;
15202;SDS011;7702;51.046;5.184;2022-09-06T12:54:14;3.50;;;2.23;;
15202;SDS011;7702;51.046;5.184;2022-09-06T12:56:46;3.07;;;2.10;;
15202;SDS011;7702;51.046;5.184;2022-09-06T13:01:42;4.87;;;2.00;;
15202;SDS011;7702;51.046;5.184;2022-09-06T13:04:16;3.17;;;2.20;;
15202;SDS011;7702;51.046;5.184;2022-09-06T13:06:56;2.80;;;2.10;;
15202;SDS011;7702;51.046;5.184;2022-09-06T13:09:23;4.50;;;2.10;;
15202;SDS011;7702;51.046;5.184;2022-09-06T13:11:51;3.33;;;1.93;;
15202;SDS011;7702;51.046;5.184;2022-09-06T13:14:18;2.30;;;1.92;;
15202;SDS011;7702;51.046;5.184;2022-09-06T13:16:50;3.38;;;2.10;;
15202;SDS011;7702;51.046;5.184;2022-09-06T13:21:55;2.67;;;2.43;;
15202;SDS011;7702;51.046;5.184;2022-09-06T13:24:36;2.50;;;2.30;;
15202;SDS011;7702;51.046;5.184;2022-09-06T13:29:58;2.20;;;1.90;;
15202;SDS011;7702;51.046;5.184;2022-09-06T13:32:26;2.70;;;2.50;;
15202;SDS011;7702;51.046;5.184;2022-09-06T13:34:53;3.27;;;2.50;;
15202;SDS011;7702;51.046;5.184;2022-09-06T13:37:28;2.70;;;2.10;;
15202;SDS011;7702;51.046;5.184;2022-09-06T13:39:55;2.40;;;2.20;;
15202;SDS011;7702;51.046;5.184;2022-09-06T13:44:52;3.30;;;2.10;;
15202;SDS011;7702;51.046;5.184;2022-09-06T13:47:17;3.33;;;2.13;;
15202;SDS011;7702;51.046;5.184;2022-09-06T13:49:43;2.40;;;2.15;;
15202;SDS011;7702;51.046;5.184;2022-09-06T13:52:09;2.30;;;2.10;;
15202;SDS011;7702;51.046;5.184;2022-09-06T13:54:35;3.87;;;2.47;;
15202;SDS011;7702;51.046;5.184;2022-09-06T13:57:01;2.20;;;2.00;;
15202;SDS011;7702;51.046;5.184;2022-09-06T13:59:27;2.13;;;1.92;;
15202;SDS011;7702;51.046;5.184;2022-09-06T14:04:25;1.83;;;1.73;;
15202;SDS011;7702;51.046;5.184;2022-09-06T14:06:52;2.65;;;2.28;;
15202;SDS011;7702;51.046;5.184;2022-09-06T14:09:18;2.97;;;1.65;;
15202;SDS011;7702;51.046;5.184;2022-09-06T14:11:44;2.47;;;1.92;;
15202;SDS011;7702;51.046;5.184;2022-09-06T14:14:10;2.95;;;2.20;;
15202;SDS011;7702;51.046;5.184;2022-09-06T14:16:36;4.82;;;1.88;;
15202;SDS011;7702;51.046;5.184;2022-09-06T14:19:02;2.35;;;2.15;;
15202;SDS011;7702;51.046;5.184;2022-09-06T14:21:28;2.22;;;1.90;;
15202;SDS011;7702;51.046;5.184;2022-09-06T14:23:54;2.45;;;1.73;;
15202;SDS011;7702;51.046;5.184;2022-09-06T14:26:22;1.83;;;1.73;;
15202;SDS011;7702;51.046;5.184;2022-09-06T14:28:48;2.28;;;1.80;;
15202;SDS011;7702;51.046;5.184;2022-09-06T14:31:15;2.40;;;1.90;;
15202;SDS011;7702;51.046;5.184;2022-09-06T14:33:51;2.57;;;1.67;;
15202;SDS011;7702;51.046;5.184;2022-09-06T14:36:19;2.90;;;2.00;;
15202;SDS011;7702;51.046;5.184;2022-09-06T14:38:48;2.23;;;2.10;;
15202;SDS011;7702;51.046;5.184;2022-09-06T14:41:15;2.17;;;2.00;;
15202;SDS011;7702;51.046;5.184;2022-09-06T14:43:42;2.70;;;1.90;;
15202;SDS011;7702;51.046;5.184;2022-09-06T14:46:11;1.97;;;1.80;;
15202;SDS011;7702;51.046;5.184;2022-09-06T14:48:38;2.13;;;2.00;;
15202;SDS011;7702;51.046;5.184;2022-09-06T14:51:15;2.55;;;1.98;;
15202;SDS011;7702;51.046;5.184;2022-09-06T14:53:46;2.13;;;2.03;;
15202;SDS011;7702;51.046;5.184;2022-09-06T14:56:13;3.25;;;2.25;;
15202;SDS011;7702;51.046;5.184;2022-09-06T14:58:39;2.38;;;2.17;;
15202;SDS011;7702;51.046;5.184;2022-09-06T15:01:15;2.30;;;1.88;;
15202;SDS011;7702;51.046;5.184;2022-09-06T15:03:43;4.43;;;2.15;;
15202;SDS011;7702;51.046;5.184;2022-09-06T15:06:15;2.00;;;1.90;;
15202;SDS011;7702;51.046;5.184;2022-09-06T15:08:42;2.13;;;1.97;;
15202;SDS011;7702;51.046;5.184;2022-09-06T15:11:09;1.80;;;1.70;;
15202;SDS011;7702;51.046;5.184;2022-09-06T15:13:36;2.20;;;2.00;;
15202;SDS011;7702;51.046;5.184;2022-09-06T15:16:05;2.30;;;2.10;;
15202;SDS011;7702;51.046;5.184;2022-09-06T15:18:32;1.93;;;1.83;;
15202;SDS011;7702;51.046;5.184;2022-09-06T15:21:11;2.43;;;1.70;;
15202;SDS011;7702;51.046;5.184;2022-09-06T15:23:38;3.35;;;2.10;;
15202;SDS011;7702;51.046;5.184;2022-09-06T15:26:08;3.17;;;2.00;;
15202;SDS011;7702;51.046;5.184;2022-09-06T15:28:35;2.23;;;1.77;;
15202;SDS011;7702;51.046;5.184;2022-09-06T15:31:01;2.30;;;1.70;;
15202;SDS011;7702;51.046;5.184;2022-09-06T15:33:28;3.47;;;2.13;;
15202;SDS011;7702;51.046;5.184;2022-09-06T15:35:55;1.93;;;1.83;;
15202;SDS011;7702;51.046;5.184;2022-09-06T15:38:21;2.13;;;2.03;;
15202;SDS011;7702;51.046;5.184;2022-09-06T15:40:47;5.30;;;1.83;;
15202;SDS011;7702;51.046;5.184;2022-09-06T15:43:13;1.93;;;1.80;;
15202;SDS011;7702;51.046;5.184;2022-09-06T15:45:46;1.87;;;1.47;;
15202;SDS011;7702;51.046;5.184;2022-09-06T15:48:13;1.60;;;1.50;;
15202;SDS011;7702;51.046;5.184;2022-09-06T15:50:40;3.07;;;1.60;;
15202;SDS011;7702;51.046;5.184;2022-09-06T15:53:07;2.03;;;1.80;;
15202;SDS011;7702;51.046;5.184;2022-09-06T15:55:34;2.77;;;1.90;;
15202;SDS011;7702;51.046;5.184;2022-09-06T15:58:18;1.83;;;1.73;;
15202;SDS011;7702;51.046;5.184;2022-09-06T16:00:44;2.67;;;1.80;;
15202;SDS011;7702;51.046;5.184;2022-09-06T16:03:09;2.50;;;1.83;;
15202;SDS011;7702;51.046;5.184;2022-09-06T16:05:36;1.93;;;1.83;;
15202;SDS011;7702;51.046;5.184;2022-09-06T16:08:02;2.70;;;2.13;;
15202;SDS011;7702;51.046;5.184;2022-09-06T16:10:27;2.77;;;1.60;;
15202;SDS011;7702;51.046;5.184;2022-09-06T16:12:54;1.80;;;1.70;;
15202;SDS011;7702;51.046;5.184;2022-09-06T16:15:20;2.77;;;2.57;;
15202;SDS011;7702;51.046;5.184;2022-09-06T16:17:46;2.23;;;2.00;;
15202;SDS011;7702;51.046;5.184;2022-09-06T16:20:12;2.10;;;2.00;;
15202;SDS011;7702;51.046;5.184;2022-09-06T16:22:38;4.83;;;1.90;;
15202;SDS011;7702;51.046;5.184;2022-09-06T16:25:04;3.10;;;1.80;;
15202;SDS011;7702;51.046;5.184;2022-09-06T16:27:30;4.80;;;1.97;;
15202;SDS011;7702;51.046;5.184;2022-09-06T16:29:56;2.30;;;1.90;;
15202;SDS011;7702;51.046;5.184;2022-09-06T16:32:22;3.00;;;1.90;;
15202;SDS011;7702;51.046;5.184;2022-09-06T16:34:49;3.40;;;1.80;;
15202;SDS011;7702;51.046;5.184;2022-09-06T16:37:14;1.60;;;1.50;;
15202;SDS011;7702;51.046;5.184;2022-09-06T16:39:40;1.87;;;1.77;;
15202;SDS011;7702;51.046;5.184;2022-09-06T16:42:07;1.77;;;1.67;;
15202;SDS011;7702;51.046;5.184;2022-09-06T16:44:32;3.50;;;2.00;;
15202;SDS011;7702;51.046;5.184;2022-09-06T16:46:58;1.70;;;1.60;;
15202;SDS011;7702;51.046;5.184;2022-09-06T16:49:27;2.10;;;1.90;;
15202;SDS011;7702;51.046;5.184;2022-09-06T16:51:53;2.27;;;2.17;;
15202;SDS011;7702;51.046;5.184;2022-09-06T16:54:19;2.47;;;1.70;;
15202;SDS011;7702;51.046;5.184;2022-09-06T16:56:45;2.30;;;2.10;;
15202;SDS011;7702;51.046;5.184;2022-09-06T16:59:11;1.70;;;1.60;;
15202;SDS011;7702;51.046;5.184;2022-09-06T17:01:39;3.00;;;2.17;;
15202;SDS011;7702;51.046;5.184;2022-09-06T17:04:05;9.00;;;2.60;;
15202;SDS011;7702;51.046;5.184;2022-09-06T17:06:31;2.13;;;1.70;;